createdAt,value
2019-03-20T00:02:00.998Z,14.05
2019-03-20T00:04:27.710Z,14.80
2019-03-20T00:06:54.452Z,16.80
2019-03-20T00:09:21.177Z,15.18
2019-03-20T00:11:48.860Z,19.48
2019-03-20T00:14:15.559Z,15.03
2019-03-20T00:16:42.240Z,13.18
2019-03-20T00:19:08.975Z,15.60
2019-03-20T00:21:35.687Z,12.63
2019-03-20T00:24:02.419Z,14.43
2019-03-20T00:26:29.127Z,13.98
2019-03-20T00:28:55.767Z,18.85
2019-03-20T00:31:23.584Z,13.50
2019-03-20T00:33:50.234Z,13.10
2019-03-20T00:36:16.940Z,15.15
2019-03-20T00:38:43.620Z,13.32
2019-03-20T00:41:10.303Z,13.15
2019-03-20T00:43:36.951Z,12.88
2019-03-20T00:46:03.715Z,17.07
2019-03-20T00:48:30.401Z,11.85
2019-03-20T00:50:57.132Z,14.40
2019-03-20T00:53:23.856Z,13.45
2019-03-20T00:55:51.477Z,12.58
2019-03-20T00:58:18.179Z,11.63
2019-03-20T01:00:44.879Z,12.00
2019-03-20T01:03:11.512Z,16.32
2019-03-20T01:05:38.202Z,14.15
2019-03-20T01:08:04.902Z,14.50
2019-03-20T01:10:31.623Z,13.50
2019-03-20T01:12:58.367Z,9.78
2019-03-20T01:15:25.110Z,13.15
2019-03-20T01:17:51.729Z,15.90
2019-03-20T01:20:19.631Z,9.95
2019-03-20T01:22:46.540Z,12.13
2019-03-20T01:25:14.198Z,12.93
2019-03-20T01:27:40.853Z,13.05
2019-03-20T01:30:35.047Z,10.68
2019-03-20T01:33:04.264Z,16.37
2019-03-20T01:35:30.942Z,15.00
2019-03-20T01:37:57.640Z,18.40
2019-03-20T01:40:25.278Z,11.73
2019-03-20T01:42:51.928Z,15.78
2019-03-20T01:45:18.660Z,14.07
2019-03-20T01:47:45.298Z,16.70
2019-03-20T01:50:11.963Z,15.53
2019-03-20T01:52:38.674Z,16.00
2019-03-20T01:55:05.915Z,15.88
2019-03-20T01:57:32.632Z,15.93
2019-03-20T01:59:59.449Z,15.65
2019-03-20T02:02:26.226Z,15.55
2019-03-20T02:04:52.946Z,19.05
2019-03-20T02:07:19.675Z,24.30
2019-03-20T02:09:46.293Z,19.02
2019-03-20T02:12:12.998Z,18.80
2019-03-20T02:14:39.692Z,16.77
2019-03-20T02:17:06.429Z,21.17
2019-03-20T02:19:33.151Z,20.12
2019-03-20T02:21:59.900Z,17.10
2019-03-20T02:24:26.511Z,18.15
2019-03-20T02:26:53.223Z,16.50
2019-03-20T02:29:19.923Z,19.48
2019-03-20T02:31:46.589Z,17.37
2019-03-20T02:34:13.335Z,17.30
2019-03-20T02:36:40.043Z,21.10
2019-03-20T02:39:07.716Z,18.40
2019-03-20T02:41:34.457Z,19.55
2019-03-20T02:44:01.170Z,16.17
2019-03-20T02:46:27.811Z,19.50
2019-03-20T02:48:54.483Z,22.82
2019-03-20T02:51:21.167Z,20.30
2019-03-20T02:53:47.836Z,18.75
2019-03-20T02:56:14.503Z,20.30
2019-03-20T02:58:42.231Z,16.70
2019-03-20T03:01:08.950Z,14.68
2019-03-20T03:03:35.603Z,12.65
2019-03-20T03:06:07.066Z,18.82
2019-03-20T03:08:31.105Z,17.00
2019-03-20T03:10:57.781Z,19.92
2019-03-20T03:13:24.487Z,20.45
2019-03-20T03:15:51.295Z,18.50
2019-03-20T03:18:17.967Z,16.50
2019-03-20T03:20:44.681Z,17.32
2019-03-20T03:23:12.327Z,20.77
2019-03-20T03:25:39.039Z,15.03
2019-03-20T03:28:05.761Z,12.05
2019-03-20T03:30:32.392Z,9.88
2019-03-20T03:32:59.084Z,13.58
2019-03-20T03:35:25.819Z,10.28
2019-03-20T03:37:52.593Z,11.85
2019-03-20T03:40:19.539Z,9.23
2019-03-20T03:42:46.278Z,10.05
2019-03-20T03:45:14.183Z,9.80
2019-03-20T03:47:40.863Z,11.10
2019-03-20T03:50:09.253Z,8.35
2019-03-20T03:52:35.986Z,11.93
2019-03-20T03:55:04.624Z,10.45
2019-03-20T03:57:31.366Z,7.87
2019-03-20T03:59:58.085Z,10.68
2019-03-20T04:02:24.766Z,10.38
2019-03-20T04:04:51.452Z,8.98
2019-03-20T04:07:18.054Z,9.68
2019-03-20T04:09:44.805Z,10.00
2019-03-20T04:12:11.588Z,8.78
2019-03-20T04:14:38.298Z,10.55
2019-03-20T04:17:20.446Z,9.38
2019-03-20T04:19:47.203Z,13.50
2019-03-20T04:22:13.816Z,8.75
2019-03-20T04:24:40.528Z,11.90
2019-03-20T04:27:07.180Z,6.53
2019-03-20T04:29:33.923Z,7.83
2019-03-20T04:32:00.631Z,9.28
2019-03-20T04:34:27.358Z,9.75
2019-03-20T04:36:53.994Z,10.32
2019-03-20T04:39:20.638Z,10.60
2019-03-20T04:41:47.398Z,10.03
2019-03-20T04:44:14.020Z,10.70
2019-03-20T04:46:41.757Z,13.48
2019-03-20T04:49:08.569Z,12.43
2019-03-20T04:51:35.204Z,15.20
2019-03-20T04:54:01.806Z,12.73
2019-03-20T04:56:28.519Z,9.98
2019-03-20T04:58:55.135Z,11.85
2019-03-20T05:01:21.809Z,14.47
2019-03-20T05:03:48.502Z,15.03
2019-03-20T05:06:15.106Z,12.85
2019-03-20T05:08:41.731Z,14.13
2019-03-20T05:11:08.416Z,15.48
2019-03-20T05:13:35.116Z,14.20
2019-03-20T05:16:01.762Z,17.62
2019-03-20T05:18:28.530Z,19.17
2019-03-20T05:20:55.139Z,16.10
2019-03-20T05:23:21.820Z,16.37
2019-03-20T05:25:48.514Z,16.67
2019-03-20T05:28:15.156Z,19.57
2019-03-20T05:30:41.824Z,15.28
2019-03-20T05:33:08.741Z,16.75
2019-03-20T05:35:35.351Z,14.25
2019-03-20T05:38:02.042Z,13.22
2019-03-20T05:40:28.735Z,14.63
2019-03-20T05:42:55.399Z,12.15
2019-03-20T05:45:22.130Z,17.70
2019-03-20T05:47:48.843Z,14.60
2019-03-20T05:50:16.166Z,13.48
2019-03-20T05:52:42.874Z,11.50
2019-03-20T05:55:09.600Z,14.35
2019-03-20T05:57:36.235Z,12.63
2019-03-20T06:00:18.911Z,16.42
2019-03-20T06:02:45.838Z,16.90
2019-03-20T06:05:12.578Z,16.20
2019-03-20T06:07:39.312Z,16.85
2019-03-20T06:10:09.059Z,15.95
2019-03-20T06:12:36.683Z,18.92
2019-03-20T06:15:04.439Z,12.80
2019-03-20T06:17:31.222Z,15.93
2019-03-20T06:19:57.823Z,13.58
2019-03-20T06:22:24.463Z,8.75
2019-03-20T06:24:51.156Z,8.15
2019-03-20T06:27:17.788Z,9.75
2019-03-20T06:29:44.420Z,11.05
2019-03-20T06:32:11.090Z,9.83
2019-03-20T06:34:37.705Z,11.48
2019-03-20T06:37:05.332Z,6.00
2019-03-20T06:39:32.005Z,6.62
2019-03-20T06:41:58.639Z,9.13
2019-03-20T06:44:25.261Z,8.95
2019-03-20T06:46:51.930Z,6.37
2019-03-20T06:49:18.654Z,10.23
2019-03-20T06:51:45.371Z,10.10
2019-03-20T06:54:12.083Z,7.80
2019-03-20T06:56:38.705Z,6.33
2019-03-20T06:59:25.680Z,7.42
2019-03-20T07:01:52.562Z,11.45
2019-03-20T07:04:22.952Z,6.90
2019-03-20T07:06:53.460Z,10.50
2019-03-20T07:09:30.013Z,8.50
2019-03-20T07:11:56.617Z,7.58
2019-03-20T07:14:23.348Z,9.55
2019-03-20T07:16:50.047Z,7.00
2019-03-20T07:19:16.763Z,7.70
2019-03-20T07:21:43.470Z,8.15
2019-03-20T07:24:10.185Z,8.13
2019-03-20T07:26:36.843Z,7.72
2019-03-20T07:29:03.706Z,10.43
2019-03-20T07:31:30.411Z,8.45
2019-03-20T07:33:57.041Z,8.33
2019-03-20T07:36:23.709Z,6.62
2019-03-20T07:38:50.413Z,8.95
2019-03-20T07:41:17.078Z,10.43
2019-03-20T07:43:43.939Z,7.47
2019-03-20T07:46:10.670Z,7.53
2019-03-20T07:48:37.279Z,7.28
2019-03-20T07:51:03.917Z,7.58
2019-03-20T07:53:30.664Z,8.33
2019-03-20T07:55:58.411Z,7.83
2019-03-20T07:58:25.085Z,6.62
2019-03-20T08:00:51.769Z,7.85
2019-03-20T08:03:18.374Z,7.05
2019-03-20T08:05:45.118Z,5.17
2019-03-20T08:08:11.787Z,5.72
2019-03-20T08:10:38.549Z,7.08
2019-03-20T08:13:05.256Z,8.33
2019-03-20T08:15:31.992Z,4.75
2019-03-20T08:17:58.586Z,4.15
2019-03-20T08:20:27.662Z,7.50
2019-03-20T08:22:54.546Z,5.35
2019-03-20T08:25:21.318Z,6.45
2019-03-20T08:27:48.026Z,6.08
2019-03-20T08:30:18.247Z,3.72
2019-03-20T08:32:44.855Z,6.12
2019-03-20T08:35:12.427Z,6.05
2019-03-20T08:37:39.616Z,5.90
2019-03-20T08:40:14.648Z,7.50
2019-03-20T08:42:41.381Z,8.20
2019-03-20T08:45:10.483Z,6.72
2019-03-20T08:47:37.206Z,5.65
2019-03-20T08:50:07.490Z,3.12
2019-03-20T08:52:34.184Z,6.62
2019-03-20T08:55:00.845Z,6.60
2019-03-20T08:57:27.592Z,4.78
2019-03-20T08:59:54.271Z,4.65
2019-03-20T09:02:20.941Z,3.20
2019-03-20T09:04:47.591Z,9.05
2019-03-20T09:07:14.363Z,5.40
2019-03-20T09:09:41.068Z,8.20
2019-03-20T09:12:07.802Z,4.65
2019-03-20T09:14:34.529Z,7.58
2019-03-20T09:17:02.146Z,4.90
2019-03-20T09:19:28.829Z,5.85
2019-03-20T09:21:55.644Z,8.35
2019-03-20T09:24:22.374Z,5.10
2019-03-20T09:26:49.036Z,6.45
2019-03-20T09:29:18.790Z,6.95
2019-03-20T09:31:44.332Z,6.85
2019-03-20T09:34:12.031Z,7.62
2019-03-20T09:36:43.063Z,4.10
2019-03-20T09:39:07.319Z,5.37
2019-03-20T09:41:33.981Z,3.75
2019-03-20T09:44:01.815Z,5.25
2019-03-20T09:46:28.427Z,3.80
2019-03-20T09:48:55.129Z,4.67
2019-03-20T09:51:21.854Z,3.83
2019-03-20T09:53:48.522Z,3.20
2019-03-20T09:56:15.161Z,4.12
2019-03-20T09:58:41.879Z,4.17
2019-03-20T10:01:08.625Z,5.17
2019-03-20T10:03:35.376Z,4.12
2019-03-20T10:06:02.118Z,3.90
2019-03-20T10:08:28.826Z,4.20
2019-03-20T10:10:55.491Z,5.10
2019-03-20T10:13:22.162Z,3.83
2019-03-20T10:15:48.827Z,4.70
2019-03-20T10:18:15.494Z,3.90
2019-03-20T10:20:42.197Z,4.03
2019-03-20T10:23:08.907Z,5.33
2019-03-20T10:25:44.091Z,5.85
2019-03-20T10:28:04.334Z,4.10
2019-03-20T10:30:30.938Z,3.05
2019-03-20T10:32:57.767Z,2.98
2019-03-20T10:35:24.487Z,4.83
2019-03-20T10:37:51.346Z,5.90
2019-03-20T10:40:27.443Z,5.03
2019-03-20T10:42:54.260Z,3.58
2019-03-20T10:45:20.984Z,3.60
2019-03-20T10:47:48.378Z,4.78
2019-03-20T10:50:24.522Z,4.72
2019-03-20T10:52:51.243Z,4.95
2019-03-20T10:55:17.956Z,3.27
2019-03-20T10:57:44.699Z,6.47
2019-03-20T11:00:23.320Z,5.22
2019-03-20T11:02:50.028Z,6.83
2019-03-20T11:05:17.284Z,6.60
2019-03-20T11:07:43.903Z,6.25
2019-03-20T11:10:19.815Z,3.50
2019-03-20T11:12:46.527Z,6.50
2019-03-20T11:15:14.855Z,5.05
2019-03-20T11:17:41.539Z,5.05
2019-03-20T11:20:10.759Z,5.40
2019-03-20T11:22:37.463Z,5.03
2019-03-20T11:25:07.403Z,5.47
2019-03-20T11:27:34.124Z,5.90
2019-03-20T11:30:00.729Z,5.22
2019-03-20T11:32:27.403Z,8.55
2019-03-20T11:34:54.086Z,3.47
2019-03-20T11:37:20.865Z,5.17
2019-03-20T11:39:47.562Z,3.75
2019-03-20T11:42:14.298Z,10.40
2019-03-20T11:44:40.906Z,5.90
2019-03-20T11:47:07.602Z,4.83
2019-03-20T11:49:35.279Z,6.47
2019-03-20T11:52:03.246Z,4.62
2019-03-20T11:54:29.968Z,5.65
2019-03-20T11:56:56.692Z,3.80
2019-03-20T11:59:24.395Z,6.00
2019-03-20T12:01:51.073Z,3.70
2019-03-20T12:04:17.780Z,4.37
2019-03-20T12:06:44.414Z,6.67
2019-03-20T12:09:11.138Z,5.62
2019-03-20T12:11:45.892Z,3.10
2019-03-20T12:14:07.470Z,5.22
2019-03-20T12:16:34.134Z,6.53
2019-03-20T12:19:00.850Z,5.15
2019-03-20T12:21:27.481Z,3.35
2019-03-20T12:23:54.184Z,13.38
2019-03-20T12:26:20.865Z,4.42
2019-03-20T12:28:47.517Z,7.50
2019-03-20T12:31:14.177Z,3.55
2019-03-20T12:33:40.947Z,4.22
2019-03-20T12:36:07.642Z,3.33
2019-03-20T12:38:34.303Z,4.10
2019-03-20T12:41:01.043Z,4.42
2019-03-20T12:43:27.687Z,6.30
2019-03-20T12:45:54.340Z,9.68
2019-03-20T12:48:21.035Z,4.60
2019-03-20T12:50:47.706Z,5.90
2019-03-20T12:53:17.589Z,6.83
2019-03-20T12:55:44.278Z,4.95
2019-03-20T12:58:11.089Z,6.00
2019-03-20T13:00:37.990Z,6.28
2019-03-20T13:03:04.734Z,3.20
2019-03-20T13:05:32.353Z,4.53
2019-03-20T13:08:05.516Z,7.70
2019-03-20T13:10:27.755Z,4.58
2019-03-20T13:12:54.525Z,9.05
2019-03-20T13:15:27.947Z,3.90
2019-03-20T13:17:55.472Z,4.78
2019-03-20T13:20:22.120Z,8.25
2019-03-20T13:23:10.138Z,6.53
2019-03-20T13:25:36.836Z,6.67
2019-03-20T13:28:03.734Z,6.87
2019-03-20T13:30:37.045Z,6.17
2019-03-20T13:33:03.957Z,5.83
2019-03-20T13:35:30.751Z,3.67
2019-03-20T13:37:57.527Z,3.65
2019-03-20T13:40:24.155Z,4.08
2019-03-20T13:42:50.821Z,3.00
2019-03-20T13:45:22.111Z,5.03
2019-03-20T13:47:48.751Z,6.27
2019-03-20T13:50:15.467Z,6.92
2019-03-20T13:52:42.167Z,3.87
2019-03-20T13:55:13.063Z,4.92
2019-03-20T13:57:39.686Z,7.85
2019-03-20T14:00:18.106Z,7.80
2019-03-20T14:02:44.710Z,4.33
2019-03-20T14:05:11.847Z,3.05
2019-03-20T14:07:38.585Z,3.98
2019-03-20T14:10:11.034Z,6.25
2019-03-20T14:12:37.714Z,3.50
2019-03-20T14:15:06.195Z,7.22
2019-03-20T14:17:32.873Z,6.70
2019-03-20T14:19:59.509Z,4.20
2019-03-20T14:22:26.233Z,5.25
2019-03-20T14:24:52.842Z,2.87
2019-03-20T14:27:19.547Z,4.42
2019-03-20T14:29:46.320Z,4.80
2019-03-20T14:32:13.082Z,6.85
2019-03-20T14:34:39.732Z,5.03
2019-03-20T14:37:06.458Z,5.72
2019-03-20T14:39:33.077Z,7.33
2019-03-20T14:41:59.762Z,7.90
2019-03-20T14:44:26.444Z,4.08
2019-03-20T14:46:53.127Z,6.78
2019-03-20T14:49:19.933Z,4.85
2019-03-20T14:51:47.607Z,4.83
2019-03-20T14:54:15.478Z,5.83
2019-03-20T14:56:42.198Z,4.95
2019-03-20T14:59:08.917Z,6.75
2019-03-20T15:01:35.529Z,4.20
2019-03-20T15:04:02.216Z,5.50
2019-03-20T15:06:28.933Z,5.50
2019-03-20T15:08:55.635Z,6.85
2019-03-20T15:11:22.403Z,8.63
2019-03-20T15:13:49.179Z,7.42
2019-03-20T15:16:15.878Z,4.87
2019-03-20T15:18:42.523Z,8.10
2019-03-20T15:21:09.300Z,4.55
2019-03-20T15:23:35.938Z,9.88
2019-03-20T15:26:02.812Z,6.55
2019-03-20T15:28:29.509Z,5.67
2019-03-20T15:30:56.238Z,7.37
2019-03-20T15:33:22.982Z,7.70
2019-03-20T15:35:49.726Z,8.13
2019-03-20T15:38:16.364Z,6.87
2019-03-20T15:40:43.049Z,8.53
2019-03-20T15:43:09.836Z,5.50
2019-03-20T15:45:36.619Z,4.97
2019-03-20T15:48:03.430Z,5.58
2019-03-20T15:50:30.346Z,7.00
2019-03-20T15:52:57.163Z,6.28
2019-03-20T15:55:29.454Z,7.10
2019-03-20T15:57:56.085Z,5.03
2019-03-20T16:00:23.147Z,7.42
2019-03-20T16:02:58.562Z,6.00
2019-03-20T16:05:25.359Z,5.97
2019-03-20T16:07:52.008Z,5.80
2019-03-20T16:10:21.712Z,5.83
2019-03-20T16:12:48.411Z,5.65
2019-03-20T16:15:17.159Z,6.42
2019-03-20T16:17:43.896Z,5.05
2019-03-20T16:20:11.757Z,4.80
2019-03-20T16:22:39.500Z,7.28
2019-03-20T16:25:08.962Z,4.97
2019-03-20T16:27:35.723Z,12.68
2019-03-20T16:30:03.654Z,5.85
2019-03-20T16:32:30.342Z,4.85
2019-03-20T16:34:57.029Z,5.97
2019-03-20T16:37:23.771Z,5.72
2019-03-20T16:39:50.415Z,6.55
2019-03-20T16:42:17.151Z,7.53
2019-03-20T16:44:43.827Z,6.58
2019-03-20T16:47:10.462Z,4.90
2019-03-20T16:49:37.252Z,6.58
2019-03-20T16:52:03.859Z,6.75
2019-03-20T16:54:30.515Z,5.53
2019-03-20T16:56:57.242Z,6.58
2019-03-20T16:59:24.206Z,7.87
2019-03-20T17:01:50.843Z,6.42
2019-03-20T17:04:17.789Z,9.55
2019-03-20T17:06:44.454Z,7.45
2019-03-20T17:09:11.264Z,8.13
2019-03-20T17:11:38.744Z,5.08
2019-03-20T17:14:05.635Z,9.03
2019-03-20T17:16:32.284Z,5.67
2019-03-20T17:18:59.228Z,7.40
2019-03-20T17:21:26.074Z,7.50
2019-03-20T17:23:52.931Z,9.70
2019-03-20T17:26:19.669Z,8.15
2019-03-20T17:28:46.299Z,8.48
2019-03-20T17:31:13.148Z,7.85
2019-03-20T17:33:39.888Z,6.72
2019-03-20T17:36:06.628Z,8.33
2019-03-20T17:38:34.391Z,5.80
2019-03-20T17:41:01.131Z,10.38
2019-03-20T17:43:27.794Z,9.00
2019-03-20T17:45:54.541Z,8.28
2019-03-20T17:48:21.288Z,10.00
2019-03-20T17:50:48.007Z,5.83
2019-03-20T17:53:14.823Z,8.80
2019-03-20T17:55:41.572Z,7.70
2019-03-20T17:58:08.198Z,9.75
2019-03-20T18:00:36.679Z,10.32
2019-03-20T18:03:04.754Z,9.25
2019-03-20T18:05:31.383Z,8.05
2019-03-20T18:07:58.031Z,8.45
2019-03-20T18:10:24.768Z,10.95
2019-03-20T18:12:51.508Z,11.85
2019-03-20T18:15:18.250Z,11.20
2019-03-20T18:17:44.921Z,9.55
2019-03-20T18:20:13.506Z,8.75
2019-03-20T18:22:40.299Z,10.03
2019-03-20T18:25:09.382Z,7.70
2019-03-20T18:27:36.017Z,6.97
2019-03-20T18:30:09.327Z,9.60
2019-03-20T18:32:36.066Z,9.90
2019-03-20T18:35:04.349Z,8.08
2019-03-20T18:37:31.191Z,11.30
2019-03-20T18:39:58.035Z,9.43
2019-03-20T18:42:24.765Z,9.93
2019-03-20T18:44:51.613Z,8.00
2019-03-20T18:47:18.356Z,9.25
2019-03-20T18:49:45.086Z,6.80
2019-03-20T18:52:11.827Z,6.92
2019-03-20T18:54:38.536Z,13.08
2019-03-20T18:57:05.209Z,8.90
2019-03-20T18:59:31.944Z,9.10
2019-03-20T19:01:58.684Z,7.95
2019-03-20T19:04:25.412Z,9.90
2019-03-20T19:06:53.184Z,7.12
2019-03-20T19:09:20.038Z,8.53
2019-03-20T19:11:46.765Z,10.20
2019-03-20T19:14:13.511Z,11.30
2019-03-20T19:16:40.250Z,10.85
2019-03-20T19:19:06.987Z,7.35
2019-03-20T19:21:33.935Z,9.83
2019-03-20T19:24:00.665Z,9.58
2019-03-20T19:26:27.309Z,17.65
2019-03-20T19:28:54.041Z,11.08
2019-03-20T19:31:20.786Z,11.80
2019-03-20T19:33:47.635Z,17.25
2019-03-20T19:36:14.281Z,17.23
2019-03-20T19:38:41.036Z,12.75
2019-03-20T19:41:08.944Z,17.17
2019-03-20T19:43:35.810Z,17.42
2019-03-20T19:46:02.492Z,17.95
2019-03-20T19:48:29.628Z,15.30
2019-03-20T19:50:56.418Z,16.42
2019-03-20T19:53:23.135Z,14.30
2019-03-20T19:55:49.774Z,12.63
2019-03-20T19:58:16.562Z,16.35
2019-03-20T20:00:43.299Z,12.60
2019-03-20T20:03:10.031Z,13.15
2019-03-20T20:05:36.779Z,13.30
2019-03-20T20:08:03.619Z,14.23
2019-03-20T20:10:30.454Z,12.85
2019-03-20T20:12:57.202Z,13.58
2019-03-20T20:15:28.716Z,13.13
2019-03-20T20:17:55.344Z,18.12
2019-03-20T20:20:27.263Z,12.35
2019-03-20T20:22:54.118Z,10.30
2019-03-20T20:25:20.952Z,15.75
2019-03-20T20:27:47.678Z,14.10
2019-03-20T20:30:18.213Z,15.15
2019-03-20T20:32:45.834Z,16.52
2019-03-20T20:35:14.035Z,15.03
2019-03-20T20:37:40.730Z,10.88
2019-03-20T20:40:19.393Z,13.53
2019-03-20T20:42:46.226Z,9.58
2019-03-20T20:45:12.951Z,13.18
2019-03-20T20:47:39.617Z,12.70
2019-03-20T20:50:09.006Z,11.30
2019-03-20T20:52:35.705Z,15.83
2019-03-20T20:55:05.466Z,18.95
2019-03-20T20:57:32.203Z,12.13
2019-03-20T20:59:58.939Z,13.25
2019-03-20T21:02:26.044Z,10.20
2019-03-20T21:04:52.721Z,9.03
2019-03-20T21:07:20.592Z,7.47
2019-03-20T21:09:47.331Z,9.45
2019-03-20T21:12:14.072Z,9.18
2019-03-20T21:14:40.899Z,8.60
2019-03-20T21:17:11.002Z,11.73
2019-03-20T21:19:37.727Z,10.15
2019-03-20T21:22:20.107Z,11.38
2019-03-20T21:24:46.884Z,10.82
2019-03-20T21:27:50.571Z,14.47
2019-03-20T21:30:20.924Z,19.25
2019-03-20T21:32:57.365Z,7.78
2019-03-20T21:35:46.975Z,10.40
2019-03-20T21:38:13.272Z,12.18
2019-03-20T21:41:03.685Z,8.25
2019-03-20T21:43:43.258Z,11.40
2019-03-20T21:46:16.393Z,9.53
2019-03-20T21:48:43.002Z,11.75
2019-03-20T21:51:13.440Z,9.15
2019-03-20T21:54:06.643Z,7.55
2019-03-20T21:56:46.238Z,8.88
2019-03-20T21:59:42.904Z,9.70
2019-03-20T22:02:38.459Z,10.50
2019-03-20T22:05:22.838Z,14.03
2019-03-20T22:07:43.499Z,10.15
2019-03-20T22:10:25.829Z,9.68
2019-03-20T22:13:18.549Z,8.35
2019-03-20T22:15:55.275Z,12.88
2019-03-20T22:18:59.420Z,11.22
2019-03-20T22:21:49.722Z,10.03
2019-03-20T22:24:36.833Z,8.85
2019-03-20T22:27:19.346Z,10.05
2019-03-20T22:29:46.012Z,8.88
2019-03-20T22:32:27.989Z,8.33
2019-03-20T22:35:07.403Z,8.40
2019-03-20T22:37:34.023Z,9.63
2019-03-20T22:40:16.661Z,10.30
2019-03-20T22:42:59.059Z,10.00
2019-03-20T22:45:38.012Z,9.58
2019-03-20T22:48:31.235Z,11.33
2019-03-20T22:51:14.810Z,7.17
2019-03-20T22:53:51.043Z,10.68
2019-03-20T22:56:39.457Z,13.00
2019-03-20T22:59:06.086Z,11.73
2019-03-20T23:01:51.750Z,8.65
2019-03-20T23:04:25.955Z,10.53
2019-03-20T23:06:52.588Z,10.70
2019-03-20T23:09:19.297Z,14.07
2019-03-20T23:11:46.006Z,10.65
2019-03-20T23:14:12.638Z,12.85
2019-03-20T23:16:39.319Z,9.13
2019-03-20T23:19:06.001Z,10.90
2019-03-20T23:21:32.647Z,9.83
2019-03-20T23:23:59.371Z,10.03
2019-03-20T23:26:26.049Z,13.00
2019-03-20T23:28:53.636Z,10.35
2019-03-20T23:31:20.357Z,10.88
2019-03-20T23:33:48.190Z,10.20
2019-03-20T23:36:14.894Z,16.55
2019-03-20T23:38:41.644Z,13.85
2019-03-20T23:41:08.380Z,10.75
2019-03-20T23:43:35.394Z,17.45
2019-03-20T23:46:03.183Z,15.50
2019-03-20T23:48:54.409Z,14.30
2019-03-20T23:51:24.012Z,19.05
2019-03-20T23:53:51.467Z,15.20
2019-03-20T23:56:18.222Z,21.45
2019-03-20T23:58:44.847Z,18.00
